M/V MSC Ronit — 3ERX9 — position and weather

sailwx.info

Track history (hours):
 
Tides and Currents Weather Stations Pressure Air Temp Water Temp Dewpoint Dewpoint Depression Visibility Wind Speed Wind Dir Waves Ship Positions

M/V MSC Ronit

Last reported at 2018-Apr-11 16:52 UTC. Time now 2018-Apr-20 22:11 UTC.
Position S 24°16' W 046°25'.
Warning: this ship's position is 9 days out of date.

Length 176 m; draft 7.1 m.

Type: Ship (hazmat cat A). MMSI: 370204000.

Date/timePositionNaut miles runAvg speedWind from/ knotsBaromVisibWave heightAir tempDewpointWater temp
2018-Apr-11 16:52S 24°16' W 046°25'3 7.7
2018-Apr-11 16:27S 24°13' W 046°25'4 7.4
2018-Apr-11 15:57S 24°09' W 046°24'5 9.2
2018-Apr-11 15:25S 24°05' W 046°22'510.5
2018-Apr-11 14:59S 24°00' W 046°20'3 6.7
2018-Apr-11 14:30S 23°58' W 046°17'1 1.3
2018-Apr-11 14:00S 23°58' W 046°18'0 0.0
2018-Apr-11 13:30S 23°58' W 046°18'0 0.0
2018-Apr-11 13:00S 23°58' W 046°18'0 0.0
2018-Apr-11 12:27S 23°58' W 046°18'0 0.0
2018-Apr-11 12:00S 23°58' W 046°18'0 0.0
2018-Apr-11 11:30S 23°58' W 046°18'0 0.0
2018-Apr-11 10:57S 23°58' W 046°18'0 0.0
2018-Apr-11 10:27S 23°58' W 046°18'0 0.0
2018-Apr-11 10:00S 23°58' W 046°18'0 0.0
2018-Apr-11 09:27S 23°58' W 046°18'0 0.0
2018-Apr-11 08:55S 23°58' W 046°18'0 0.0
2018-Apr-11 08:25S 23°58' W 046°18'0 0.0
2018-Apr-11 08:00S 23°58' W 046°18'0 0.3
2018-Apr-11 07:30S 23°58' W 046°18'4 7.2
2018-Apr-11 07:00S 23°55' W 046°21'0 0.2
2018-Apr-11 05:13S 23°55' W 046°21'0 0.0
2018-Apr-11 04:49S 23°55' W 046°21'0 0.0
2018-Apr-11 04:25S 23°55' W 046°21'0 0.0
2018-Apr-11 03:49S 23°55' W 046°21'0 0.0
2018-Apr-11 03:25S 23°55' W 046°21'0 0.0
2018-Apr-11 02:58S 23°55' W 046°21'0 0.0
2018-Apr-10 11:18S 23°55' W 046°21'0 0.0
2018-Apr-10 11:00S 23°55' W 046°21'0 0.0
2018-Apr-10 10:30S 23°55' W 046°21'0 0.0
2018-Apr-10 09:54S 23°55' W 046°21'0 0.0
2018-Apr-10 09:30S 23°55' W 046°21'0 0.0
2018-Apr-10 07:54S 23°55' W 046°21'0 0.0
2018-Apr-10 07:12S 23°55' W 046°21'0 0.1
2018-Apr-10 07:00S 23°55' W 046°21'0 0.0
2018-Apr-10 06:27S 23°55' W 046°21'0 0.0
2018-Apr-10 05:54S 23°55' W 046°21'0 0.0
2018-Apr-10 05:27S 23°55' W 046°21'0 0.0
2018-Apr-10 04:48S 23°55' W 046°21'0 0.0
2018-Apr-10 04:27S 23°55' W 046°21'0 0.0
2018-Apr-10 03:36S 23°55' W 046°21'0 0.1
2018-Apr-10 03:30S 23°55' W 046°21'0 0.0
2018-Apr-10 02:57S 23°55' W 046°21'0 0.0
2018-Apr-10 02:18S 23°55' W 046°21'0 0.0
2018-Apr-10 01:51S 23°55' W 046°21'0 0.0
2018-Apr-10 01:15S 23°55' W 046°21'0 0.0
2018-Apr-10 00:54S 23°55' W 046°21'0 0.0
2018-Apr-10 00:30S 23°55' W 046°21'0 0.0
2018-Apr-10 00:00S 23°55' W 046°21'0 0.0
2018-Apr-09 23:27S 23°55' W 046°21'0 0.0
2018-Apr-09 22:57S 23°55' W 046°21'0 0.0
2018-Apr-09 22:15S 23°55' W 046°21'0 0.1
2018-Apr-09 22:00S 23°55' W 046°21'0 0.0
2018-Apr-09 21:30S 23°55' W 046°21'0 0.0
2018-Apr-09 21:00S 23°55' W 046°21'0 0.0
2018-Apr-09 19:48S 23°55' W 046°21'0 0.0
2018-Apr-09 19:27S 23°55' W 046°21'0 0.0
2018-Apr-09 19:00S 23°55' W 046°21'0 0.0
2018-Apr-09 18:30S 23°55' W 046°21'0 0.0
2018-Apr-09 17:57S 23°55' W 046°21'0 0.0
2018-Apr-09 17:29S 23°55' W 046°21'1 2.0
2018-Apr-09 17:00S 23°56' W 046°20'4 7.3
2018-Apr-09 16:29S 23°59' W 046°17'3 6.9
2018-Apr-09 16:00S 24°01' W 046°20'5 9.5
2018-Apr-09 15:28S 24°05' W 046°23'3 5.6
2018-Apr-09 14:56S 24°08' W 046°24'  
Track history (hours):
 
Tides and Currents Weather Stations Pressure Air Temp Water Temp Dewpoint Dewpoint Depression Visibility Wind Speed Wind Dir Waves Ship Positions

M/V MSC Ronit

Last reported at 2018-Apr-11 16:52 UTC. Time now 2018-Apr-20 22:11 UTC.
Position S 24°16' W 046°25'.
Warning: this ship's position is 9 days out of date.

Length 176 m; draft 7.1 m.

Type: Ship (hazmat cat A). MMSI: 370204000.

Date/timePositionNaut miles runAvg speedWind from/ knotsBaromVisibWave heightAir tempDewpointWater temp
2018-Apr-11 16:52S 24°16' W 046°25'3 7.7
2018-Apr-11 16:27S 24°13' W 046°25'4 7.4
2018-Apr-11 15:57S 24°09' W 046°24'5 9.2
2018-Apr-11 15:25S 24°05' W 046°22'510.5
2018-Apr-11 14:59S 24°00' W 046°20'3 6.7
2018-Apr-11 14:30S 23°58' W 046°17'1 1.3
2018-Apr-11 14:00S 23°58' W 046°18'0 0.0
2018-Apr-11 13:30S 23°58' W 046°18'0 0.0
2018-Apr-11 13:00S 23°58' W 046°18'0 0.0
2018-Apr-11 12:27S 23°58' W 046°18'0 0.0
2018-Apr-11 12:00S 23°58' W 046°18'0 0.0
2018-Apr-11 11:30S 23°58' W 046°18'0 0.0
2018-Apr-11 10:57S 23°58' W 046°18'0 0.0
2018-Apr-11 10:27S 23°58' W 046°18'0 0.0
2018-Apr-11 10:00S 23°58' W 046°18'0 0.0
2018-Apr-11 09:27S 23°58' W 046°18'0 0.0
2018-Apr-11 08:55S 23°58' W 046°18'0 0.0
2018-Apr-11 08:25S 23°58' W 046°18'0 0.0
2018-Apr-11 08:00S 23°58' W 046°18'0 0.3
2018-Apr-11 07:30S 23°58' W 046°18'4 7.2
2018-Apr-11 07:00S 23°55' W 046°21'0 0.2
2018-Apr-11 05:13S 23°55' W 046°21'0 0.0
2018-Apr-11 04:49S 23°55' W 046°21'0 0.0
2018-Apr-11 04:25S 23°55' W 046°21'0 0.0
2018-Apr-11 03:49S 23°55' W 046°21'0 0.0
2018-Apr-11 03:25S 23°55' W 046°21'0 0.0
2018-Apr-11 02:58S 23°55' W 046°21'0 0.0
2018-Apr-10 11:18S 23°55' W 046°21'0 0.0
2018-Apr-10 11:00S 23°55' W 046°21'0 0.0
2018-Apr-10 10:30S 23°55' W 046°21'0 0.0
2018-Apr-10 09:54S 23°55' W 046°21'0 0.0
2018-Apr-10 09:30S 23°55' W 046°21'0 0.0
2018-Apr-10 07:54S 23°55' W 046°21'0 0.0
2018-Apr-10 07:12S 23°55' W 046°21'0 0.1
2018-Apr-10 07:00S 23°55' W 046°21'0 0.0
2018-Apr-10 06:27S 23°55' W 046°21'0 0.0
2018-Apr-10 05:54S 23°55' W 046°21'0 0.0
2018-Apr-10 05:27S 23°55' W 046°21'0 0.0
2018-Apr-10 04:48S 23°55' W 046°21'0 0.0
2018-Apr-10 04:27S 23°55' W 046°21'0 0.0
2018-Apr-10 03:36S 23°55' W 046°21'0 0.1
2018-Apr-10 03:30S 23°55' W 046°21'0 0.0
2018-Apr-10 02:57S 23°55' W 046°21'0 0.0
2018-Apr-10 02:18S 23°55' W 046°21'0 0.0
2018-Apr-10 01:51S 23°55' W 046°21'0 0.0
2018-Apr-10 01:15S 23°55' W 046°21'0 0.0
2018-Apr-10 00:54S 23°55' W 046°21'0 0.0
2018-Apr-10 00:30S 23°55' W 046°21'0 0.0
2018-Apr-10 00:00S 23°55' W 046°21'0 0.0
2018-Apr-09 23:27S 23°55' W 046°21'0 0.0
2018-Apr-09 22:57S 23°55' W 046°21'0 0.0
2018-Apr-09 22:15S 23°55' W 046°21'0 0.1
2018-Apr-09 22:00S 23°55' W 046°21'0 0.0
2018-Apr-09 21:30S 23°55' W 046°21'0 0.0
2018-Apr-09 21:00S 23°55' W 046°21'0 0.0
2018-Apr-09 19:48S 23°55' W 046°21'0 0.0
2018-Apr-09 19:27S 23°55' W 046°21'0 0.0
2018-Apr-09 19:00S 23°55' W 046°21'0 0.0
2018-Apr-09 18:30S 23°55' W 046°21'0 0.0
2018-Apr-09 17:57S 23°55' W 046°21'0 0.0
2018-Apr-09 17:29S 23°55' W 046°21'1 2.0
2018-Apr-09 17:00S 23°56' W 046°20'4 7.3
2018-Apr-09 16:29S 23°59' W 046°17'3 6.9
2018-Apr-09 16:00S 24°01' W 046°20'5 9.5
2018-Apr-09 15:28S 24°05' W 046°23'3 5.6
2018-Apr-09 14:56S 24°08' W 046°24'  

Dump ship's entire track history